createdAt,value
2022-12-19T00:01:22.428Z,1.40
2022-12-19T00:03:50.416Z,1.43
2022-12-19T00:06:18.123Z,1.48
2022-12-19T00:08:45.806Z,1.47
2022-12-19T00:11:13.212Z,1.43
2022-12-19T00:13:40.985Z,1.62
2022-12-19T00:16:13.182Z,1.58
2022-12-19T00:18:43.982Z,1.49
2022-12-19T00:21:11.735Z,1.53
2022-12-19T00:23:38.155Z,1.67
2022-12-19T00:26:12.363Z,1.52
2022-12-19T00:28:39.401Z,1.51
2022-12-19T00:31:06.356Z,1.52
2022-12-19T00:33:32.767Z,1.55
2022-12-19T00:36:02.295Z,1.51
2022-12-19T00:38:29.100Z,1.65
2022-12-19T00:40:55.564Z,1.55
2022-12-19T00:43:22.192Z,1.59
2022-12-19T00:45:48.567Z,1.72
2022-12-19T00:48:14.914Z,1.44
2022-12-19T00:50:43.970Z,1.54
2022-12-19T00:53:10.347Z,1.64
2022-12-19T00:55:38.059Z,1.62
2022-12-19T00:58:04.478Z,1.52
2022-12-19T01:00:30.895Z,1.55
2022-12-19T01:02:58.787Z,1.51
2022-12-19T01:05:25.243Z,1.62
2022-12-19T01:07:51.760Z,1.58
2022-12-19T01:10:18.058Z,1.63
2022-12-19T01:12:47.463Z,1.61
2022-12-19T01:15:15.230Z,1.75
2022-12-19T01:17:44.724Z,1.73
2022-12-19T01:20:12.280Z,1.70
2022-12-19T01:22:38.736Z,1.70
2022-12-19T01:25:05.487Z,1.67
2022-12-19T01:27:32.058Z,1.63
2022-12-19T01:29:58.390Z,1.67
2022-12-19T01:32:24.807Z,1.57
2022-12-19T01:34:51.179Z,1.68
2022-12-19T01:37:17.731Z,1.73
2022-12-19T01:39:44.682Z,1.89
2022-12-19T01:42:16.357Z,1.72
2022-12-19T01:45:04.354Z,1.77
2022-12-19T01:47:31.765Z,1.64
2022-12-19T01:49:58.151Z,1.85
2022-12-19T01:52:24.809Z,1.78
2022-12-19T01:54:51.173Z,1.72
2022-12-19T01:57:19.116Z,1.85
2022-12-19T01:59:48.400Z,1.67
2022-12-19T02:02:17.433Z,1.87
2022-12-19T02:04:45.354Z,1.72
2022-12-19T02:07:15.934Z,1.66
2022-12-19T02:09:44.551Z,1.90
2022-12-19T02:12:10.922Z,1.87
2022-12-19T02:14:37.296Z,1.95
2022-12-19T02:17:17.705Z,1.88
2022-12-19T02:19:47.051Z,1.81
2022-12-19T02:22:24.974Z,1.96
2022-12-19T02:24:51.442Z,1.91
2022-12-19T02:27:26.895Z,1.96
2022-12-19T02:29:53.320Z,2.02
2022-12-19T02:32:21.360Z,1.98
2022-12-19T02:34:57.181Z,2.11
2022-12-19T02:37:27.812Z,2.11
2022-12-19T02:39:59.593Z,1.95
2022-12-19T02:42:31.985Z,2.06
2022-12-19T02:44:59.757Z,2.02
2022-12-19T02:47:26.787Z,2.15
2022-12-19T02:49:53.142Z,2.17
2022-12-19T02:52:19.521Z,2.13
2022-12-19T02:54:47.642Z,2.24
2022-12-19T02:57:25.599Z,2.16
2022-12-19T03:00:06.066Z,2.30
2022-12-19T03:02:50.486Z,2.28
2022-12-19T03:05:29.747Z,2.34
2022-12-19T03:08:16.385Z,2.46
2022-12-19T03:10:52.638Z,2.36
2022-12-19T03:13:22.500Z,2.38
2022-12-19T03:15:49.040Z,2.36
2022-12-19T03:18:15.488Z,2.42
2022-12-19T03:21:00.584Z,2.49
2022-12-19T03:23:27.732Z,2.55
2022-12-19T03:25:56.494Z,2.58
2022-12-19T03:28:26.905Z,2.60
2022-12-19T03:30:54.180Z,2.63
2022-12-19T03:33:22.012Z,2.68
2022-12-19T03:35:49.740Z,2.73
2022-12-19T03:38:18.081Z,2.74
2022-12-19T03:40:46.115Z,2.64
2022-12-19T03:43:14.019Z,2.71
2022-12-19T03:45:43.340Z,2.84
2022-12-19T03:48:33.334Z,2.91
2022-12-19T03:50:59.725Z,2.65
2022-12-19T03:53:35.384Z,2.82
2022-12-19T03:56:09.881Z,2.99
2022-12-19T03:58:40.007Z,2.96
2022-12-19T04:01:06.925Z,2.79
2022-12-19T04:03:33.413Z,2.85
2022-12-19T04:06:00.593Z,3.02
2022-12-19T04:08:28.990Z,2.98
2022-12-19T04:10:59.254Z,2.92
2022-12-19T04:13:37.651Z,3.09
2022-12-19T04:16:11.440Z,3.02
2022-12-19T04:18:40.255Z,3.07
2022-12-19T04:21:18.845Z,3.08
2022-12-19T04:23:48.843Z,3.17
2022-12-19T04:26:16.341Z,3.31
2022-12-19T04:28:46.932Z,3.28
2022-12-19T04:31:14.130Z,3.27
2022-12-19T04:33:40.566Z,3.30
2022-12-19T04:36:07.081Z,3.37
2022-12-19T04:38:33.478Z,3.39
2022-12-19T04:40:59.872Z,3.34
2022-12-19T04:43:26.222Z,3.33
2022-12-19T04:45:57.092Z,3.47
2022-12-19T04:48:24.017Z,3.27
2022-12-19T04:50:50.357Z,3.41
2022-12-19T04:53:16.734Z,3.38
2022-12-19T04:55:44.162Z,3.42
2022-12-19T04:58:11.298Z,3.31
2022-12-19T05:00:37.605Z,3.45
2022-12-19T05:03:04.100Z,3.51
2022-12-19T05:05:30.615Z,3.56
2022-12-19T05:07:57.489Z,3.57
2022-12-19T05:10:23.848Z,3.63
2022-12-19T05:12:50.166Z,3.55
2022-12-19T05:15:17.040Z,3.64
2022-12-19T05:17:43.496Z,3.62
2022-12-19T05:20:10.580Z,3.76
2022-12-19T05:22:36.946Z,3.77
2022-12-19T05:25:03.312Z,3.83
2022-12-19T05:27:29.664Z,3.82
2022-12-19T05:29:56.001Z,3.82
2022-12-19T05:32:22.390Z,3.94
2022-12-19T05:34:48.764Z,3.90
2022-12-19T05:37:15.157Z,4.02
2022-12-19T05:39:41.562Z,4.04
2022-12-19T05:42:12.181Z,4.05
2022-12-19T05:44:38.899Z,4.04
2022-12-19T05:47:05.360Z,4.02
2022-12-19T05:49:31.821Z,4.07
2022-12-19T05:51:58.157Z,4.10
2022-12-19T05:54:25.707Z,4.12
2022-12-19T05:56:52.044Z,4.15
2022-12-19T05:59:18.398Z,4.23
2022-12-19T06:01:44.872Z,4.22
2022-12-19T06:04:11.321Z,4.26
2022-12-19T06:06:38.116Z,4.36
2022-12-19T06:09:04.518Z,4.40
2022-12-19T06:11:33.882Z,4.17
2022-12-19T06:14:00.253Z,4.46
2022-12-19T06:16:26.671Z,4.53
2022-12-19T06:18:53.082Z,4.57
2022-12-19T06:21:20.551Z,4.68
2022-12-19T06:23:47.021Z,4.61
2022-12-19T06:26:19.147Z,4.68
2022-12-19T06:28:47.142Z,4.78
2022-12-19T06:31:14.320Z,4.83
2022-12-19T06:33:40.680Z,4.86
2022-12-19T06:36:09.951Z,4.92
2022-12-19T06:38:36.243Z,5.00
2022-12-19T06:41:22.417Z,5.06
2022-12-19T06:43:53.364Z,5.11
2022-12-19T06:46:20.245Z,5.12
2022-12-19T06:48:46.651Z,5.11
2022-12-19T06:51:13.043Z,5.20
2022-12-19T06:53:40.237Z,5.25
2022-12-19T06:56:06.807Z,5.32
2022-12-19T06:58:33.641Z,5.46
2022-12-19T07:01:01.309Z,5.53
2022-12-19T07:03:30.402Z,5.63
2022-12-19T07:05:56.832Z,5.72
2022-12-19T07:08:23.154Z,5.66
2022-12-19T07:10:49.630Z,5.74
2022-12-19T07:13:16.131Z,5.87
2022-12-19T07:15:42.586Z,5.89
2022-12-19T07:18:09.462Z,5.81
2022-12-19T07:20:39.587Z,5.90
2022-12-19T07:23:10.178Z,5.95
2022-12-19T07:25:37.577Z,5.99
2022-12-19T07:28:04.002Z,6.04
2022-12-19T07:30:30.513Z,6.01
2022-12-19T07:32:56.970Z,6.00
2022-12-19T07:35:23.738Z,6.00
2022-12-19T07:37:50.531Z,6.05
2022-12-19T07:40:17.773Z,6.06
2022-12-19T07:42:45.305Z,6.11
2022-12-19T07:45:12.288Z,6.14
2022-12-19T07:47:38.665Z,6.20
2022-12-19T07:50:05.259Z,6.26
2022-12-19T07:52:31.637Z,6.30
2022-12-19T07:54:57.936Z,6.36
2022-12-19T07:57:24.321Z,6.50
2022-12-19T07:59:50.639Z,6.47
2022-12-19T08:02:17.272Z,6.55
2022-12-19T08:04:43.761Z,6.63
2022-12-19T08:07:10.556Z,6.67
2022-12-19T08:09:36.909Z,6.76
2022-12-19T08:12:04.231Z,6.87
2022-12-19T08:14:30.673Z,6.82
2022-12-19T08:17:19.655Z,6.99
2022-12-19T08:19:43.365Z,7.05
2022-12-19T08:22:09.732Z,7.19
2022-12-19T08:24:40.234Z,7.25
2022-12-19T08:27:06.533Z,7.40
2022-12-19T08:29:32.875Z,7.42
2022-12-19T08:31:59.253Z,7.56
2022-12-19T08:34:26.778Z,7.51
2022-12-19T08:36:53.120Z,7.70
2022-12-19T08:39:19.473Z,7.74
2022-12-19T08:41:48.922Z,7.82
2022-12-19T08:44:17.485Z,7.90
2022-12-19T08:46:49.668Z,7.99
2022-12-19T08:49:16.476Z,8.03
2022-12-19T08:51:42.858Z,8.19
2022-12-19T08:54:12.009Z,8.33
2022-12-19T08:56:38.758Z,8.37
2022-12-19T08:59:12.307Z,8.41
2022-12-19T09:01:40.378Z,8.59
2022-12-19T09:05:57.238Z,8.61
2022-12-19T09:06:53.208Z,8.68
2022-12-19T09:09:19.593Z,8.71
2022-12-19T09:11:47.543Z,8.82
2022-12-19T09:14:14.722Z,8.84
2022-12-19T09:16:46.978Z,8.77
2022-12-19T09:19:15.575Z,8.82
2022-12-19T09:21:42.477Z,8.90
2022-12-19T09:24:08.955Z,8.89
2022-12-19T09:26:35.938Z,8.92
2022-12-19T09:29:03.599Z,8.96
2022-12-19T09:31:34.645Z,8.99
2022-12-19T09:34:00.964Z,9.05
2022-12-19T09:36:27.424Z,9.06
2022-12-19T09:38:54.664Z,9.14
2022-12-19T09:41:21.012Z,9.05
2022-12-19T09:44:06.326Z,9.10
2022-12-19T09:46:41.870Z,9.24
2022-12-19T09:49:11.931Z,9.18
2022-12-19T09:51:41.219Z,9.16
2022-12-19T09:54:13.494Z,9.40
2022-12-19T09:56:46.181Z,9.29
2022-12-19T09:59:28.140Z,9.30
2022-12-19T10:02:13.464Z,9.34
2022-12-19T10:04:46.657Z,9.33
2022-12-19T10:07:38.967Z,9.47
2022-12-19T10:12:34.115Z,9.43
2022-12-19T10:12:52.875Z,9.43
2022-12-19T10:15:43.907Z,9.44
2022-12-19T10:18:48.539Z,9.50
2022-12-19T10:22:07.601Z,9.48
2022-12-19T10:25:08.226Z,9.49
2022-12-19T10:27:37.943Z,9.39
2022-12-19T10:30:25.265Z,9.47
2022-12-19T10:32:59.752Z,9.52
2022-12-19T10:35:34.920Z,9.57
2022-12-19T10:38:13.523Z,9.62
2022-12-19T10:40:44.090Z,9.61
2022-12-19T10:43:12.825Z,9.58
2022-12-19T10:45:55.264Z,9.67
2022-12-19T10:48:27.725Z,9.65
2022-12-19T10:50:57.251Z,9.48
2022-12-19T10:53:32.869Z,9.56
2022-12-19T10:56:11.410Z,9.50
2022-12-19T10:58:41.890Z,9.58
2022-12-19T11:01:22.604Z,9.66
2022-12-19T11:03:51.979Z,9.68
2022-12-19T11:06:34.411Z,9.64
2022-12-19T11:09:18.149Z,9.72
2022-12-19T11:16:08.379Z,9.71
2022-12-19T11:20:33.785Z,9.76
2022-12-19T11:27:17.327Z,9.85
2022-12-19T11:29:25.112Z,9.89
2022-12-19T11:29:33.481Z,9.94
2022-12-19T11:30:39.631Z,9.86
2022-12-19T11:30:43.365Z,9.95
2022-12-19T11:32:32.232Z,10.05
2022-12-19T11:34:24.268Z,10.03
2022-12-19T11:37:03.288Z,10.06
2022-12-19T11:40:02.294Z,10.07
2022-12-19T11:42:37.456Z,10.20
2022-12-19T11:45:22.697Z,10.20
2022-12-19T11:48:07.882Z,10.18
2022-12-19T11:50:56.497Z,10.15
2022-12-19T11:53:28.934Z,10.12
2022-12-19T11:56:15.940Z,10.17
2022-12-19T11:58:47.325Z,10.24
2022-12-19T12:01:16.738Z,10.21
2022-12-19T12:03:57.045Z,10.29
2022-12-19T12:06:32.228Z,10.36
2022-12-19T12:10:46.065Z,10.26
2022-12-19T12:19:02.552Z,10.30
2022-12-19T12:26:11.141Z,10.27
2022-12-19T12:31:05.688Z,10.29
2022-12-19T12:31:20.741Z,10.15
2022-12-19T12:31:21.173Z,10.30
2022-12-19T12:31:45.491Z,10.28
2022-12-19T12:31:50.065Z,10.30
2022-12-19T12:35:33.640Z,10.34
2022-12-19T12:35:51.087Z,10.19
2022-12-19T12:40:38.428Z,10.35
2022-12-19T12:43:17.032Z,10.38
2022-12-19T12:45:47.171Z,10.40
2022-12-19T12:48:17.207Z,10.29
2022-12-19T12:50:48.565Z,10.21
2022-12-19T12:53:19.302Z,10.38
2022-12-19T12:55:46.115Z,10.45
2022-12-19T12:58:31.357Z,10.43
2022-12-19T13:01:08.163Z,10.40
2022-12-19T13:03:34.942Z,10.41
2022-12-19T13:06:06.823Z,10.47
2022-12-19T13:08:36.299Z,10.33
2022-12-19T13:11:52.808Z,10.46
2022-12-19T13:14:34.155Z,10.37
2022-12-19T13:17:04.383Z,10.47
2022-12-19T13:19:35.249Z,10.49
2022-12-19T13:22:04.427Z,10.51
2022-12-19T13:24:47.989Z,10.62
2022-12-19T13:27:20.050Z,10.54
2022-12-19T13:30:14.639Z,10.58
2022-12-19T13:32:41.004Z,10.58
2022-12-19T13:35:30.425Z,10.70
2022-12-19T13:39:51.969Z,10.63
2022-12-19T13:41:26.336Z,10.69
2022-12-19T13:43:58.410Z,10.75
2022-12-19T13:46:27.955Z,10.67
2022-12-19T13:49:02.341Z,10.62
2022-12-19T13:51:40.021Z,10.74
2022-12-19T13:54:18.148Z,10.79
2022-12-19T13:56:44.499Z,10.76
2022-12-19T13:59:10.987Z,10.80
2022-12-19T14:01:40.249Z,10.79
2022-12-19T14:04:25.766Z,10.88
2022-12-19T14:06:58.742Z,10.75
2022-12-19T14:11:26.292Z,10.74
2022-12-19T14:14:00.860Z,10.73
2022-12-19T14:15:35.047Z,10.74
2022-12-19T14:18:29.981Z,10.71
2022-12-19T14:22:11.010Z,10.72
2022-12-19T14:23:43.578Z,10.70
2022-12-19T14:28:23.324Z,10.76
2022-12-19T14:29:52.200Z,10.72
2022-12-19T14:33:39.411Z,10.69
2022-12-19T14:36:08.487Z,10.64
2022-12-19T14:39:18.494Z,10.69
2022-12-19T14:40:31.255Z,10.75
2022-12-19T14:43:59.929Z,10.75
2022-12-19T14:54:04.475Z,10.60
2022-12-19T14:54:11.032Z,10.65
2022-12-19T14:54:28.660Z,10.50
2022-12-19T14:56:15.900Z,10.51
2022-12-19T14:58:55.745Z,10.58
2022-12-19T15:01:09.514Z,10.58
2022-12-19T15:03:44.678Z,10.56
2022-12-19T15:07:05.317Z,10.51
2022-12-19T15:10:58.786Z,10.55
2022-12-19T15:14:20.638Z,10.52
2022-12-19T15:15:18.343Z,10.48
2022-12-19T15:17:46.164Z,10.45
2022-12-19T15:20:12.606Z,10.48
2022-12-19T15:22:39.071Z,10.46
2022-12-19T15:25:05.735Z,10.35
2022-12-19T15:27:32.254Z,10.39
2022-12-19T15:30:01.577Z,10.45
2022-12-19T15:32:27.909Z,10.49
2022-12-19T15:34:54.257Z,10.45
2022-12-19T15:37:20.614Z,10.47
2022-12-19T15:39:47.026Z,10.44
2022-12-19T15:42:23.874Z,10.51
2022-12-19T15:44:52.131Z,10.44
2022-12-19T15:47:21.747Z,10.48
2022-12-19T15:49:48.167Z,10.41
2022-12-19T15:52:18.276Z,10.43
2022-12-19T15:54:48.937Z,10.38
2022-12-19T15:57:29.017Z,10.28
2022-12-19T15:59:57.066Z,10.21
2022-12-19T16:02:25.123Z,10.28
2022-12-19T16:04:55.553Z,10.30
2022-12-19T16:07:26.809Z,10.21
2022-12-19T16:09:54.652Z,10.15
2022-12-19T16:12:33.876Z,10.17
2022-12-19T16:15:01.407Z,10.11
2022-12-19T16:17:30.311Z,10.17
2022-12-19T16:19:56.665Z,10.19
2022-12-19T16:22:27.394Z,10.16
2022-12-19T16:24:54.261Z,10.18
2022-12-19T16:27:27.239Z,10.13
2022-12-19T16:29:54.446Z,10.21
2022-12-19T16:32:23.921Z,10.20
2022-12-19T16:34:51.361Z,10.22
2022-12-19T16:37:17.808Z,10.23
2022-12-19T16:39:44.319Z,10.25
2022-12-19T16:42:16.138Z,10.19
2022-12-19T16:44:42.987Z,10.21
2022-12-19T16:47:13.815Z,10.26
2022-12-19T16:49:40.312Z,10.25
2022-12-19T16:52:06.757Z,10.26
2022-12-19T16:54:33.129Z,10.17
2022-12-19T16:57:00.223Z,10.15
2022-12-19T16:59:34.208Z,10.13
2022-12-19T17:02:00.727Z,10.14
2022-12-19T17:04:28.569Z,10.14
2022-12-19T17:06:55.094Z,10.08
2022-12-19T17:09:23.060Z,10.13
2022-12-19T17:12:00.080Z,10.08
2022-12-19T17:14:29.533Z,10.04
2022-12-19T17:16:58.416Z,9.96
2022-12-19T17:19:27.305Z,10.02
2022-12-19T17:21:53.659Z,10.02
2022-12-19T17:24:20.095Z,9.90
2022-12-19T17:26:46.466Z,9.94
2022-12-19T17:29:13.418Z,9.91
2022-12-19T17:31:40.132Z,9.93
2022-12-19T17:34:08.284Z,9.83
2022-12-19T17:36:37.394Z,9.79
2022-12-19T17:39:17.053Z,9.60
2022-12-19T17:41:43.449Z,9.72
2022-12-19T17:44:11.529Z,9.65
2022-12-19T17:46:38.247Z,9.71
2022-12-19T17:49:04.627Z,9.68
2022-12-19T17:51:30.982Z,9.66
2022-12-19T17:53:57.301Z,9.57
2022-12-19T17:56:23.677Z,9.54
2022-12-19T17:58:50.060Z,9.58
2022-12-19T18:01:21.114Z,9.58
2022-12-19T18:03:50.212Z,9.60
2022-12-19T18:06:16.715Z,9.50
2022-12-19T18:08:43.560Z,9.34
2022-12-19T18:11:30.128Z,9.48
2022-12-19T18:13:56.571Z,9.49
2022-12-19T18:16:25.529Z,9.45
2022-12-19T18:18:52.200Z,9.57
2022-12-19T18:21:19.686Z,9.50
2022-12-19T18:23:46.304Z,9.49
2022-12-19T18:26:12.939Z,9.48
2022-12-19T18:28:39.609Z,9.53
2022-12-19T18:31:16.531Z,9.40
2022-12-19T18:33:45.372Z,9.57
2022-12-19T18:36:16.613Z,9.48
2022-12-19T18:38:43.107Z,9.56
2022-12-19T18:41:10.857Z,9.61
2022-12-19T18:43:37.226Z,9.58
2022-12-19T18:46:03.931Z,9.65
2022-12-19T18:48:35.033Z,9.56
2022-12-19T18:51:01.475Z,9.59
2022-12-19T18:53:36.014Z,9.60
2022-12-19T18:56:03.515Z,9.61
2022-12-19T18:58:30.024Z,9.50
2022-12-19T19:00:59.363Z,9.63
2022-12-19T19:03:33.628Z,9.68
2022-12-19T19:06:00.261Z,9.67
2022-12-19T19:08:28.089Z,9.66
2022-12-19T19:10:55.266Z,9.68
2022-12-19T19:13:22.627Z,9.63
2022-12-19T19:15:51.948Z,9.53
2022-12-19T19:18:24.231Z,9.61
2022-12-19T19:20:55.700Z,9.48
2022-12-19T19:23:28.460Z,9.53
2022-12-19T19:25:54.802Z,9.65
2022-12-19T19:28:21.157Z,9.67
2022-12-19T19:30:47.575Z,9.67
2022-12-19T19:33:21.974Z,9.57
2022-12-19T19:35:51.142Z,9.61
2022-12-19T19:38:19.479Z,9.70
2022-12-19T19:40:45.841Z,9.69
2022-12-19T19:43:12.221Z,9.60
2022-12-19T19:45:43.259Z,9.66
2022-12-19T19:48:10.515Z,9.71
2022-12-19T19:50:36.872Z,9.77
2022-12-19T19:53:03.225Z,9.82
2022-12-19T19:55:29.848Z,9.76
2022-12-19T19:57:56.235Z,9.80
2022-12-19T20:00:22.653Z,9.93
2022-12-19T20:02:49.492Z,9.93
2022-12-19T20:05:16.236Z,9.98
2022-12-19T20:07:42.977Z,10.02
2022-12-19T20:10:12.370Z,10.00
2022-12-19T20:12:38.939Z,9.97
2022-12-19T20:15:05.933Z,10.03
2022-12-19T20:17:32.302Z,10.06
2022-12-19T20:19:58.657Z,10.10
2022-12-19T20:22:25.025Z,10.12
2022-12-19T20:24:51.499Z,10.22
2022-12-19T20:27:17.885Z,10.27
2022-12-19T20:29:44.261Z,10.25
2022-12-19T20:32:10.621Z,10.24
2022-12-19T20:34:37.324Z,10.28
2022-12-19T20:37:03.699Z,10.30
2022-12-19T20:39:30.400Z,10.34
2022-12-19T20:41:56.943Z,10.44
2022-12-19T20:44:24.646Z,10.58
2022-12-19T20:46:52.149Z,10.57
2022-12-19T20:49:18.791Z,10.54
2022-12-19T20:51:47.584Z,10.70
2022-12-19T20:54:15.650Z,10.71
2022-12-19T20:56:42.152Z,10.81
2022-12-19T20:59:09.504Z,10.88
2022-12-19T21:01:36.120Z,10.90
2022-12-19T21:04:02.867Z,11.00
2022-12-19T21:06:29.512Z,10.97
2022-12-19T21:08:56.265Z,11.02
2022-12-19T21:11:23.289Z,11.11
2022-12-19T21:13:49.861Z,11.11
2022-12-19T21:16:18.353Z,11.11
2022-12-19T21:18:45.803Z,11.10
2022-12-19T21:21:13.776Z,11.28
2022-12-19T21:23:40.360Z,11.21
2022-12-19T21:26:06.719Z,11.18
2022-12-19T21:28:33.450Z,11.27
2022-12-19T21:31:04.316Z,11.33
2022-12-19T21:33:30.955Z,11.32
2022-12-19T21:35:57.356Z,11.35
2022-12-19T21:38:24.338Z,11.35
2022-12-19T21:40:50.685Z,11.42
2022-12-19T21:43:17.013Z,11.41
2022-12-19T21:45:43.602Z,11.51
2022-12-19T21:48:09.992Z,11.54
2022-12-19T21:50:36.341Z,11.41
2022-12-19T21:53:02.762Z,11.52
2022-12-19T21:55:29.118Z,11.52
2022-12-19T21:57:55.525Z,11.60
2022-12-19T22:00:22.155Z,11.60
2022-12-19T22:03:12.053Z,11.61
2022-12-19T22:05:35.422Z,11.75
2022-12-19T22:08:01.740Z,11.73
2022-12-19T22:10:28.085Z,11.77
2022-12-19T22:12:54.462Z,11.77
2022-12-19T22:15:20.845Z,11.80
2022-12-19T22:17:47.372Z,11.76
2022-12-19T22:20:13.776Z,11.87
2022-12-19T22:22:40.237Z,11.90
2022-12-19T22:25:06.675Z,11.94
2022-12-19T22:27:33.134Z,11.92
2022-12-19T22:30:03.413Z,12.02
2022-12-19T22:32:33.050Z,11.94
2022-12-19T22:34:59.413Z,11.98
2022-12-19T22:37:25.929Z,12.02
2022-12-19T22:39:52.437Z,11.91
2022-12-19T22:42:18.767Z,11.94
2022-12-19T22:44:45.141Z,11.90
2022-12-19T22:47:11.637Z,12.05
2022-12-19T22:49:37.943Z,12.10
2022-12-19T22:52:04.454Z,12.08
2022-12-19T22:54:30.867Z,12.14
2022-12-19T22:56:57.366Z,12.13
2022-12-19T22:59:23.948Z,12.10
2022-12-19T23:01:50.437Z,12.22
2022-12-19T23:04:17.698Z,12.13
2022-12-19T23:06:44.448Z,12.22
2022-12-19T23:09:12.582Z,12.21
2022-12-19T23:11:40.215Z,12.18
2022-12-19T23:14:07.969Z,12.22
2022-12-19T23:16:34.441Z,12.26
2022-12-19T23:19:00.917Z,12.24
2022-12-19T23:21:27.725Z,12.34
2022-12-19T23:23:54.907Z,12.27
2022-12-19T23:26:25.813Z,12.25
2022-12-19T23:29:03.910Z,12.16
2022-12-19T23:31:30.825Z,12.20
2022-12-19T23:33:58.112Z,12.18
2022-12-19T23:37:00.230Z,12.27
2022-12-19T23:39:11.973Z,12.25
2022-12-19T23:41:38.395Z,12.22
2022-12-19T23:44:04.997Z,12.29
2022-12-19T23:46:31.688Z,12.20
2022-12-19T23:48:58.087Z,12.18
2022-12-19T23:51:25.690Z,12.17
2022-12-19T23:53:52.680Z,12.16
2022-12-19T23:56:20.042Z,12.09
2022-12-19T23:58:46.791Z,12.11
